Oslo Bulk 1 — 9V8766 — position and weather

sailwx.info

Track history (hours):
 
Tides and Currents Weather Stations Pressure Air Temp Water Temp Dewpoint Dewpoint Depression Visibility Wind Speed Wind Dir Waves Ship Positions

Oslo Bulk 1

Last reported at 2018-Apr-17 20:27 UTC. Time now 2018-Apr-21 13:42 UTC.
Position S 39°04' E 145°57'.

Length 108 m; draft 7 m.

Type: Cargo ship. MMSI: 564010000.

Date/timePositionNaut miles runAvg speedWind from/ knotsBaromVisibWave heightAir tempDewpointWater temp
2018-Apr-17 20:27S 39°04' E 145°57'  
2018-Apr-15 04:53S 33°13' E 152°21'410.1
2018-Apr-15 04:30S 33°10' E 152°23'5 9.6
2018-Apr-15 03:56S 33°05' E 152°26'4 9.2
2018-Apr-15 03:27S 33°01' E 152°28'4 9.3
2018-Apr-15 03:00S 32°57' E 152°30'5 9.3
2018-Apr-15 02:30S 32°53' E 152°32'9 9.6
2018-Apr-15 01:34S 32°44' E 152°33'1 9.9
2018-Apr-15 01:30S 32°43' E 152°34'1010.6
2018-Apr-15 00:32S 32°34' E 152°38'010.6
2018-Apr-15 00:30S 32°33' E 152°38'24813.6
2018-Apr-14 06:11S 28°33' E 153°49'314.0
2018-Apr-14 06:00S 28°30' E 153°49'714.0
2018-Apr-14 05:30S 28°23' E 153°48'714.2
2018-Apr-14 05:00S 28°16' E 153°47'713.9
2018-Apr-14 04:30S 28°09' E 153°47'713.6
2018-Apr-14 03:59S 28°02' E 153°45'613.4
2018-Apr-14 03:30S 27°56' E 153°44'73 9.4
2018-Apr-13 19:43S 26°49' E 153°11'2 8.4
2018-Apr-13 19:30S 26°50' E 153°09'5 9.7
2018-Apr-13 19:00S 26°55' E 153°11'5 9.4
2018-Apr-13 18:30S 26°59' E 153°14'5 9.0
2018-Apr-13 18:00S 27°03' E 153°16'5 9.2
2018-Apr-13 17:30S 27°06' E 153°19'4 8.1
2018-Apr-13 17:00S 27°10' E 153°19'510.0
2018-Apr-13 16:30S 27°15' E 153°16'510.6
2018-Apr-13 16:00S 27°19' E 153°12'511.0
2018-Apr-13 15:30S 27°23' E 153°09'3 5.9
2018-Apr-13 15:00S 27°26' E 153°07'0 0.1
2018-Apr-13 14:29S 27°26' E 153°07'0 0.0
2018-Apr-13 13:59S 27°26' E 153°07'0 0.0
2018-Apr-13 13:29S 27°26' E 153°07'0 0.0
2018-Apr-13 12:59S 27°26' E 153°07'0 0.0
2018-Apr-13 12:29S 27°26' E 153°07'0 0.0
2018-Apr-13 11:59S 27°26' E 153°07'0 0.0
2018-Apr-13 11:26S 27°26' E 153°07'0 0.0
2018-Apr-13 10:47S 27°26' E 153°07'0 0.0
2018-Apr-13 08:02S 27°26' E 153°07'0 0.0
2018-Apr-13 07:59S 27°26' E 153°07'0 0.0
2018-Apr-13 02:20S 27°26' E 153°07'0 0.0
2018-Apr-13 01:56S 27°26' E 153°07'0 0.0
2018-Apr-12 19:41S 27°26' E 153°07'0 0.0
2018-Apr-12 19:26S 27°26' E 153°07'0 0.0
2018-Apr-12 18:50S 27°26' E 153°07'0 0.0
2018-Apr-12 18:29S 27°26' E 153°07'0 0.0
2018-Apr-12 17:56S 27°26' E 153°07'0 0.0
2018-Apr-12 17:29S 27°26' E 153°07'0 0.0
2018-Apr-12 16:59S 27°26' E 153°07'0 0.0
2018-Apr-12 16:29S 27°26' E 153°07'0 0.0
2018-Apr-12 15:59S 27°26' E 153°07'0 0.0
2018-Apr-12 15:29S 27°26' E 153°07'0 0.0
2018-Apr-12 14:59S 27°26' E 153°07'0 0.0
2018-Apr-12 14:29S 27°26' E 153°07'0 0.0
2018-Apr-12 13:59S 27°26' E 153°07'0 0.0
2018-Apr-12 13:29S 27°26' E 153°07'0 0.0
2018-Apr-12 12:59S 27°26' E 153°07'0 0.0
2018-Apr-12 12:29S 27°26' E 153°07'0 0.0
2018-Apr-12 11:59S 27°26' E 153°07'0 0.0
2018-Apr-12 11:29S 27°26' E 153°07'0 0.0
2018-Apr-12 10:59S 27°26' E 153°07'0 0.0
2018-Apr-12 10:29S 27°26' E 153°07'0 0.0
2018-Apr-12 09:59S 27°26' E 153°07'0 0.0
2018-Apr-12 09:29S 27°26' E 153°07'0 0.0
2018-Apr-12 08:59S 27°26' E 153°07'0 0.1
2018-Apr-12 08:29S 27°26' E 153°07'0 0.0
2018-Apr-12 07:59S 27°26' E 153°07'0 0.0
2018-Apr-12 07:14S 27°26' E 153°07'0 0.0
2018-Apr-12 06:59S 27°26' E 153°07'0 0.0
2018-Apr-12 06:20S 27°26' E 153°07'0 0.0
2018-Apr-12 01:38S 27°26' E 153°07'0 0.0
2018-Apr-12 01:29S 27°26' E 153°07'0 0.0
2018-Apr-11 23:23S 27°26' E 153°07'0 0.0
2018-Apr-11 22:53S 27°26' E 153°07'0 0.0
2018-Apr-11 22:15S 27°26' E 153°07'0 0.0
2018-Apr-11 21:59S 27°26' E 153°07'0 0.0
2018-Apr-10 16:29S 27°26' E 153°07'0 0.0
2018-Apr-10 15:59S 27°26' E 153°07'0 0.0
2018-Apr-10 15:29S 27°26' E 153°07'0 0.0
2018-Apr-10 14:59S 27°26' E 153°07'0 0.0
2018-Apr-10 14:29S 27°26' E 153°07'0 0.0
2018-Apr-10 13:59S 27°26' E 153°07'0 0.0
2018-Apr-10 13:26S 27°26' E 153°07'0 0.0
2018-Apr-10 12:59S 27°26' E 153°07'0 0.0
2018-Apr-10 12:29S 27°26' E 153°07'0 0.0
2018-Apr-10 11:59S 27°26' E 153°07'0 0.0
2018-Apr-10 11:29S 27°26' E 153°07'0 0.0
2018-Apr-10 10:59S 27°26' E 153°07'0 0.0
2018-Apr-10 10:29S 27°26' E 153°07'0 0.0
2018-Apr-10 09:59S 27°26' E 153°07'0 0.0
2018-Apr-10 09:29S 27°26' E 153°07'0 0.0
2018-Apr-10 08:59S 27°26' E 153°07'0 0.0
2018-Apr-10 08:29S 27°26' E 153°07'0 0.0
2018-Apr-10 07:59S 27°26' E 153°07'0 0.0
2018-Apr-10 07:29S 27°26' E 153°07'0 0.0
2018-Apr-10 06:56S 27°26' E 153°07'0 0.0
2018-Apr-10 06:11S 27°26' E 153°07'0 0.0
2018-Apr-10 05:59S 27°26' E 153°07'0 0.0
2018-Apr-09 23:17S 27°26' E 153°07'0 0.0
2018-Apr-09 22:59S 27°26' E 153°07'0 0.0
2018-Apr-09 22:29S 27°26' E 153°07'0 0.0
2018-Apr-09 21:59S 27°26' E 153°07'0 0.0
2018-Apr-09 21:29S 27°26' E 153°07'0 0.0
2018-Apr-09 20:59S 27°26' E 153°07'0 0.0
2018-Apr-09 20:26S 27°26' E 153°07'0 0.0
2018-Apr-09 19:56S 27°26' E 153°07'0 0.0
2018-Apr-09 19:29S 27°26' E 153°07'0 0.0
2018-Apr-09 18:59S 27°26' E 153°07'0 0.0
2018-Apr-09 18:29S 27°26' E 153°07'0 0.0
2018-Apr-09 17:59S 27°26' E 153°07'0 0.0
2018-Apr-09 17:29S 27°26' E 153°07'0 0.0
2018-Apr-09 16:59S 27°26' E 153°07'0 0.0
2018-Apr-09 16:29S 27°26' E 153°07'0 0.0
2018-Apr-09 15:59S 27°26' E 153°07'0 0.0
2018-Apr-09 15:29S 27°26' E 153°07'0 0.0
2018-Apr-09 14:59S 27°26' E 153°07'0 0.0
2018-Apr-09 14:29S 27°26' E 153°07'0 0.0
2018-Apr-09 13:59S 27°26' E 153°07'0 0.0
2018-Apr-09 13:29S 27°26' E 153°07'0 0.0
2018-Apr-09 12:59S 27°26' E 153°07'0 0.0
2018-Apr-09 12:29S 27°26' E 153°07'0 0.0
2018-Apr-09 11:59S 27°26' E 153°07'0 0.0
2018-Apr-09 11:29S 27°26' E 153°07'0 0.0
2018-Apr-09 10:59S 27°26' E 153°07'0 0.0
2018-Apr-09 10:29S 27°26' E 153°07'0 0.0
2018-Apr-09 09:59S 27°26' E 153°07'0 0.0
2018-Apr-09 09:29S 27°26' E 153°07'0 0.0
2018-Apr-09 08:59S 27°26' E 153°07'0 0.0
2018-Apr-09 08:29S 27°26' E 153°07'0 0.0
2018-Apr-09 07:59S 27°26' E 153°07'0 0.0
2018-Apr-09 07:29S 27°26' E 153°07'0 0.0
2018-Apr-09 06:53S 27°26' E 153°07'0 0.0
2018-Apr-09 06:26S 27°26' E 153°07'0 0.0
2018-Apr-08 21:35S 27°26' E 153°07'0 0.0
2018-Apr-08 21:29S 27°26' E 153°07'0 0.0
2018-Apr-08 20:56S 27°26' E 153°07'0 0.0
2018-Apr-08 20:23S 27°26' E 153°07'0 0.0
2018-Apr-08 19:59S 27°26' E 153°07'0 0.0
2018-Apr-08 19:29S 27°26' E 153°07'0 0.0
2018-Apr-08 18:59S 27°26' E 153°07'0 0.0
2018-Apr-08 18:30S 27°26' E 153°07'0 0.2
2018-Apr-08 17:58S 27°26' E 153°07'0 0.6
2018-Apr-08 17:30S 27°26' E 153°08'3 5.3
2018-Apr-08 17:00S 27°23' E 153°09'510.4
2018-Apr-08 16:30S 27°19' E 153°12'510.9
2018-Apr-08 16:00S 27°15' E 153°16'611.3
2018-Apr-08 15:30S 27°10' E 153°20'710.1
2018-Apr-08 14:49S 27°03' E 153°18'910.5
2018-Apr-08 13:55S 26°56' E 153°12'510.4
2018-Apr-08 13:24S 26°51' E 153°09'  
Track history (hours):
 
Tides and Currents Weather Stations Pressure Air Temp Water Temp Dewpoint Dewpoint Depression Visibility Wind Speed Wind Dir Waves Ship Positions

Oslo Bulk 1

Last reported at 2018-Apr-17 20:27 UTC. Time now 2018-Apr-21 13:42 UTC.
Position S 39°04' E 145°57'.

Length 108 m; draft 7 m.

Type: Cargo ship. MMSI: 564010000.

Date/timePositionNaut miles runAvg speedWind from/ knotsBaromVisibWave heightAir tempDewpointWater temp
2018-Apr-17 20:27S 39°04' E 145°57'  
2018-Apr-15 04:53S 33°13' E 152°21'410.1
2018-Apr-15 04:30S 33°10' E 152°23'5 9.6
2018-Apr-15 03:56S 33°05' E 152°26'4 9.2
2018-Apr-15 03:27S 33°01' E 152°28'4 9.3
2018-Apr-15 03:00S 32°57' E 152°30'5 9.3
2018-Apr-15 02:30S 32°53' E 152°32'9 9.6
2018-Apr-15 01:34S 32°44' E 152°33'1 9.9
2018-Apr-15 01:30S 32°43' E 152°34'1010.6
2018-Apr-15 00:32S 32°34' E 152°38'010.6
2018-Apr-15 00:30S 32°33' E 152°38'24813.6
2018-Apr-14 06:11S 28°33' E 153°49'314.0
2018-Apr-14 06:00S 28°30' E 153°49'714.0
2018-Apr-14 05:30S 28°23' E 153°48'714.2
2018-Apr-14 05:00S 28°16' E 153°47'713.9
2018-Apr-14 04:30S 28°09' E 153°47'713.6
2018-Apr-14 03:59S 28°02' E 153°45'613.4
2018-Apr-14 03:30S 27°56' E 153°44'73 9.4
2018-Apr-13 19:43S 26°49' E 153°11'2 8.4
2018-Apr-13 19:30S 26°50' E 153°09'5 9.7
2018-Apr-13 19:00S 26°55' E 153°11'5 9.4
2018-Apr-13 18:30S 26°59' E 153°14'5 9.0
2018-Apr-13 18:00S 27°03' E 153°16'5 9.2
2018-Apr-13 17:30S 27°06' E 153°19'4 8.1
2018-Apr-13 17:00S 27°10' E 153°19'510.0
2018-Apr-13 16:30S 27°15' E 153°16'510.6
2018-Apr-13 16:00S 27°19' E 153°12'511.0
2018-Apr-13 15:30S 27°23' E 153°09'3 5.9
2018-Apr-13 15:00S 27°26' E 153°07'0 0.1
2018-Apr-13 14:29S 27°26' E 153°07'0 0.0
2018-Apr-13 13:59S 27°26' E 153°07'0 0.0
2018-Apr-13 13:29S 27°26' E 153°07'0 0.0
2018-Apr-13 12:59S 27°26' E 153°07'0 0.0
2018-Apr-13 12:29S 27°26' E 153°07'0 0.0
2018-Apr-13 11:59S 27°26' E 153°07'0 0.0
2018-Apr-13 11:26S 27°26' E 153°07'0 0.0
2018-Apr-13 10:47S 27°26' E 153°07'0 0.0
2018-Apr-13 08:02S 27°26' E 153°07'0 0.0
2018-Apr-13 07:59S 27°26' E 153°07'0 0.0
2018-Apr-13 02:20S 27°26' E 153°07'0 0.0
2018-Apr-13 01:56S 27°26' E 153°07'0 0.0
2018-Apr-12 19:41S 27°26' E 153°07'0 0.0
2018-Apr-12 19:26S 27°26' E 153°07'0 0.0
2018-Apr-12 18:50S 27°26' E 153°07'0 0.0
2018-Apr-12 18:29S 27°26' E 153°07'0 0.0
2018-Apr-12 17:56S 27°26' E 153°07'0 0.0
2018-Apr-12 17:29S 27°26' E 153°07'0 0.0
2018-Apr-12 16:59S 27°26' E 153°07'0 0.0
2018-Apr-12 16:29S 27°26' E 153°07'0 0.0
2018-Apr-12 15:59S 27°26' E 153°07'0 0.0
2018-Apr-12 15:29S 27°26' E 153°07'0 0.0
2018-Apr-12 14:59S 27°26' E 153°07'0 0.0
2018-Apr-12 14:29S 27°26' E 153°07'0 0.0
2018-Apr-12 13:59S 27°26' E 153°07'0 0.0
2018-Apr-12 13:29S 27°26' E 153°07'0 0.0
2018-Apr-12 12:59S 27°26' E 153°07'0 0.0
2018-Apr-12 12:29S 27°26' E 153°07'0 0.0
2018-Apr-12 11:59S 27°26' E 153°07'0 0.0
2018-Apr-12 11:29S 27°26' E 153°07'0 0.0
2018-Apr-12 10:59S 27°26' E 153°07'0 0.0
2018-Apr-12 10:29S 27°26' E 153°07'0 0.0
2018-Apr-12 09:59S 27°26' E 153°07'0 0.0
2018-Apr-12 09:29S 27°26' E 153°07'0 0.0
2018-Apr-12 08:59S 27°26' E 153°07'0 0.1
2018-Apr-12 08:29S 27°26' E 153°07'0 0.0
2018-Apr-12 07:59S 27°26' E 153°07'0 0.0
2018-Apr-12 07:14S 27°26' E 153°07'0 0.0
2018-Apr-12 06:59S 27°26' E 153°07'0 0.0
2018-Apr-12 06:20S 27°26' E 153°07'0 0.0
2018-Apr-12 01:38S 27°26' E 153°07'0 0.0
2018-Apr-12 01:29S 27°26' E 153°07'0 0.0
2018-Apr-11 23:23S 27°26' E 153°07'0 0.0
2018-Apr-11 22:53S 27°26' E 153°07'0 0.0
2018-Apr-11 22:15S 27°26' E 153°07'0 0.0
2018-Apr-11 21:59S 27°26' E 153°07'0 0.0
2018-Apr-10 16:29S 27°26' E 153°07'0 0.0
2018-Apr-10 15:59S 27°26' E 153°07'0 0.0
2018-Apr-10 15:29S 27°26' E 153°07'0 0.0
2018-Apr-10 14:59S 27°26' E 153°07'0 0.0
2018-Apr-10 14:29S 27°26' E 153°07'0 0.0
2018-Apr-10 13:59S 27°26' E 153°07'0 0.0
2018-Apr-10 13:26S 27°26' E 153°07'0 0.0
2018-Apr-10 12:59S 27°26' E 153°07'0 0.0
2018-Apr-10 12:29S 27°26' E 153°07'0 0.0
2018-Apr-10 11:59S 27°26' E 153°07'0 0.0
2018-Apr-10 11:29S 27°26' E 153°07'0 0.0
2018-Apr-10 10:59S 27°26' E 153°07'0 0.0
2018-Apr-10 10:29S 27°26' E 153°07'0 0.0
2018-Apr-10 09:59S 27°26' E 153°07'0 0.0
2018-Apr-10 09:29S 27°26' E 153°07'0 0.0
2018-Apr-10 08:59S 27°26' E 153°07'0 0.0
2018-Apr-10 08:29S 27°26' E 153°07'0 0.0
2018-Apr-10 07:59S 27°26' E 153°07'0 0.0
2018-Apr-10 07:29S 27°26' E 153°07'0 0.0
2018-Apr-10 06:56S 27°26' E 153°07'0 0.0
2018-Apr-10 06:11S 27°26' E 153°07'0 0.0
2018-Apr-10 05:59S 27°26' E 153°07'0 0.0
2018-Apr-09 23:17S 27°26' E 153°07'0 0.0
2018-Apr-09 22:59S 27°26' E 153°07'0 0.0
2018-Apr-09 22:29S 27°26' E 153°07'0 0.0
2018-Apr-09 21:59S 27°26' E 153°07'0 0.0
2018-Apr-09 21:29S 27°26' E 153°07'0 0.0
2018-Apr-09 20:59S 27°26' E 153°07'0 0.0
2018-Apr-09 20:26S 27°26' E 153°07'0 0.0
2018-Apr-09 19:56S 27°26' E 153°07'0 0.0
2018-Apr-09 19:29S 27°26' E 153°07'0 0.0
2018-Apr-09 18:59S 27°26' E 153°07'0 0.0
2018-Apr-09 18:29S 27°26' E 153°07'0 0.0
2018-Apr-09 17:59S 27°26' E 153°07'0 0.0
2018-Apr-09 17:29S 27°26' E 153°07'0 0.0
2018-Apr-09 16:59S 27°26' E 153°07'0 0.0
2018-Apr-09 16:29S 27°26' E 153°07'0 0.0
2018-Apr-09 15:59S 27°26' E 153°07'0 0.0
2018-Apr-09 15:29S 27°26' E 153°07'0 0.0
2018-Apr-09 14:59S 27°26' E 153°07'0 0.0
2018-Apr-09 14:29S 27°26' E 153°07'0 0.0
2018-Apr-09 13:59S 27°26' E 153°07'0 0.0
2018-Apr-09 13:29S 27°26' E 153°07'0 0.0
2018-Apr-09 12:59S 27°26' E 153°07'0 0.0
2018-Apr-09 12:29S 27°26' E 153°07'0 0.0
2018-Apr-09 11:59S 27°26' E 153°07'0 0.0
2018-Apr-09 11:29S 27°26' E 153°07'0 0.0
2018-Apr-09 10:59S 27°26' E 153°07'0 0.0
2018-Apr-09 10:29S 27°26' E 153°07'0 0.0
2018-Apr-09 09:59S 27°26' E 153°07'0 0.0
2018-Apr-09 09:29S 27°26' E 153°07'0 0.0
2018-Apr-09 08:59S 27°26' E 153°07'0 0.0
2018-Apr-09 08:29S 27°26' E 153°07'0 0.0
2018-Apr-09 07:59S 27°26' E 153°07'0 0.0
2018-Apr-09 07:29S 27°26' E 153°07'0 0.0
2018-Apr-09 06:53S 27°26' E 153°07'0 0.0
2018-Apr-09 06:26S 27°26' E 153°07'0 0.0
2018-Apr-08 21:35S 27°26' E 153°07'0 0.0
2018-Apr-08 21:29S 27°26' E 153°07'0 0.0
2018-Apr-08 20:56S 27°26' E 153°07'0 0.0
2018-Apr-08 20:23S 27°26' E 153°07'0 0.0
2018-Apr-08 19:59S 27°26' E 153°07'0 0.0
2018-Apr-08 19:29S 27°26' E 153°07'0 0.0
2018-Apr-08 18:59S 27°26' E 153°07'0 0.0
2018-Apr-08 18:30S 27°26' E 153°07'0 0.2
2018-Apr-08 17:58S 27°26' E 153°07'0 0.6
2018-Apr-08 17:30S 27°26' E 153°08'3 5.3
2018-Apr-08 17:00S 27°23' E 153°09'510.4
2018-Apr-08 16:30S 27°19' E 153°12'510.9
2018-Apr-08 16:00S 27°15' E 153°16'611.3
2018-Apr-08 15:30S 27°10' E 153°20'710.1
2018-Apr-08 14:49S 27°03' E 153°18'910.5
2018-Apr-08 13:55S 26°56' E 153°12'510.4
2018-Apr-08 13:24S 26°51' E 153°09'  

Dump ship's entire track history